Time;durP1;ratioP1;P1;durP2;ratioP2;P2;SDS_P1;SDS_P2;PMS_P1;PMS_P2;Temp;Humidity;BMP_temperature;BMP_pressure;BME280_temperature;BME280_humidity;BME280_pressure;Samples;Min_cycle;Max_cycle;Signal;HPM_P1;HPM_P2
2023/10/04 00:00:15;;;;;;;3.17;2.28;;;;;;;;;;6227916;23;20039;-81
2023/10/04 00:02:49;;;;;;;3.45;2.10;;;;;;;;;;6202221;23;20490;-81
2023/10/04 00:05:24;;;;;;;2.78;2.17;;;;;;;;;;6228352;23;20022;-81
2023/10/04 00:07:56;;;;;;;7.85;2.20;;;;;;;;;;6228361;23;20017;-81
2023/10/04 00:10:24;;;;;;;2.85;2.35;;;;;;;;;;6227913;23;20022;-81
2023/10/04 00:12:54;;;;;;;3.75;3.38;;;;;;;;;;6204220;23;20018;-81
2023/10/04 00:15:25;;;;;;;3.47;2.63;;;;;;;;;;6203900;22;20017;-81
2023/10/04 00:17:55;;;;;;;3.28;1.63;;;;;;;;;;6211579;23;20027;-81
2023/10/04 00:20:31;;;;;;;3.55;2.25;;;;;;;;;;6252060;23;20018;-81
2023/10/04 00:23:04;;;;;;;5.13;2.58;;;;;;;;;;6224681;23;20510;-81
2023/10/04 00:25:34;;;;;;;9.45;2.67;;;;;;;;;;6226113;22;20030;-81
2023/10/04 00:28:02;;;;;;;2.38;2.10;;;;;;;;;;6227839;23;20016;-81
2023/10/04 00:30:33;;;;;;;3.92;2.97;;;;;;;;;;6203625;23;20020;-81
2023/10/04 00:33:02;;;;;;;3.47;2.20;;;;;;;;;;6228022;23;20019;-81
2023/10/04 00:35:31;;;;;;;5.32;2.47;;;;;;;;;;6227377;22;20012;-81
2023/10/04 00:38:00;;;;;;;5.60;2.58;;;;;;;;;;6200727;23;20026;-81
2023/10/04 00:40:29;;;;;;;4.63;2.20;;;;;;;;;;6200877;23;20022;-81
2023/10/04 00:43:12;;;;;;;3.15;2.20;;;;;;;;;;6200681;23;20035;-80
2023/10/04 00:45:40;;;;;;;3.17;1.85;;;;;;;;;;6202396;22;20026;-81
2023/10/04 00:48:14;;;;;;;3.05;1.95;;;;;;;;;;6202678;23;20020;-81
2023/10/04 00:50:43;;;;;;;3.20;2.78;;;;;;;;;;6202291;23;20020;-81
2023/10/04 00:53:13;;;;;;;2.75;2.33;;;;;;;;;;6227803;23;20045;-81
2023/10/04 00:55:44;;;;;;;4.00;2.35;;;;;;;;;;6203850;22;20016;-81
2023/10/04 00:58:17;;;;;;;3.55;2.25;;;;;;;;;;6266503;23;20343;-81
2023/10/04 01:00:48;;;;;;;2.58;1.77;;;;;;;;;;6205021;23;20478;-81
2023/10/04 01:03:20;;;;;;;3.97;3.58;;;;;;;;;;6204321;23;20031;-81
2023/10/04 01:05:51;;;;;;;3.55;2.30;;;;;;;;;;6228394;22;20008;-81
2023/10/04 01:08:21;;;;;;;2.25;1.75;;;;;;;;;;6202890;23;20020;-81
2023/10/04 01:10:53;;;;;;;2.80;1.92;;;;;;;;;;6238266;23;20024;-81
2023/10/04 01:13:26;;;;;;;5.40;2.03;;;;;;;;;;6202757;23;20027;-81
2023/10/04 01:15:57;;;;;;;3.28;2.05;;;;;;;;;;6228310;23;20024;-81
2023/10/04 01:18:28;;;;;;;2.20;1.73;;;;;;;;;;6228099;23;20468;-81
2023/10/04 01:20:59;;;;;;;2.25;2.05;;;;;;;;;;6229109;23;20020;-81
2023/10/04 01:23:28;;;;;;;4.65;2.38;;;;;;;;;;6227765;23;20020;-81
2023/10/04 01:25:56;;;;;;;2.47;1.90;;;;;;;;;;6256453;22;20016;-81
2023/10/04 01:28:28;;;;;;;2.92;2.00;;;;;;;;;;6204199;23;20024;-81
2023/10/04 01:31:00;;;;;;;4.75;2.70;;;;;;;;;;6229272;23;20026;-81
2023/10/04 01:33:28;;;;;;;2.25;1.95;;;;;;;;;;6203083;23;20026;-81
2023/10/04 01:35:57;;;;;;;3.13;2.63;;;;;;;;;;6202391;23;20024;-81
2023/10/04 01:38:29;;;;;;;4.90;3.45;;;;;;;;;;6227955;23;20019;-81
2023/10/04 01:40:57;;;;;;;3.40;1.95;;;;;;;;;;6202755;23;20020;-81
2023/10/04 01:43:27;;;;;;;5.43;1.80;;;;;;;;;;6227802;23;20008;-81
2023/10/04 01:45:57;;;;;;;2.58;2.28;;;;;;;;;;6202556;23;20023;-81
2023/10/04 01:48:26;;;;;;;3.65;2.75;;;;;;;;;;6238500;23;20019;-81
2023/10/04 01:50:56;;;;;;;3.80;1.92;;;;;;;;;;6202837;23;20066;-81
2023/10/04 01:53:25;;;;;;;2.80;2.20;;;;;;;;;;6202648;23;20179;-81
2023/10/04 01:55:54;;;;;;;3.75;1.65;;;;;;;;;;6203009;23;20026;-81
2023/10/04 01:58:23;;;;;;;3.78;1.90;;;;;;;;;;6203091;23;20368;-81
2023/10/04 02:00:50;;;;;;;6.70;2.63;;;;;;;;;;6203154;23;20364;-81
2023/10/04 02:03:17;;;;;;;3.80;2.72;;;;;;;;;;6203164;23;20019;-81
2023/10/04 02:05:45;;;;;;;3.42;2.35;;;;;;;;;;6228227;23;20027;-81
2023/10/04 02:08:13;;;;;;;2.50;1.60;;;;;;;;;;6202739;23;20344;-81
2023/10/04 02:10:41;;;;;;;3.03;1.63;;;;;;;;;;6202502;23;20026;-81
2023/10/04 02:13:14;;;;;;;10.75;2.47;;;;;;;;;;6237932;23;20019;-81
2023/10/04 02:15:47;;;;;;;5.80;3.05;;;;;;;;;;6233572;23;20012;-81
2023/10/04 02:18:14;;;;;;;4.60;2.97;;;;;;;;;;6201635;23;20038;-81
2023/10/04 02:20:49;;;;;;;3.65;2.70;;;;;;;;;;6226962;23;20034;-81
2023/10/04 02:23:17;;;;;;;5.80;2.92;;;;;;;;;;6200073;23;20020;-81
2023/10/04 02:25:44;;;;;;;5.70;2.58;;;;;;;;;;6202493;23;20016;-81
2023/10/04 02:28:18;;;;;;;3.53;2.55;;;;;;;;;;6228798;23;20013;-81
2023/10/04 02:30:48;;;;;;;2.60;2.22;;;;;;;;;;6205304;23;20026;-81
2023/10/04 02:33:16;;;;;;;3.15;2.30;;;;;;;;;;6230931;23;20020;-81
2023/10/04 02:35:48;;;;;;;2.58;2.22;;;;;;;;;;6239853;23;20027;-81
2023/10/04 02:38:23;;;;;;;5.03;3.28;;;;;;;;;;6204284;23;20026;-81
2023/10/04 02:40:51;;;;;;;3.80;2.63;;;;;;;;;;6202457;23;20035;-81
2023/10/04 02:43:20;;;;;;;4.95;2.55;;;;;;;;;;6201256;23;20352;-81
2023/10/04 02:45:48;;;;;;;3.80;2.45;;;;;;;;;;6201595;23;20020;-81
2023/10/04 02:48:19;;;;;;;4.30;3.25;;;;;;;;;;6200901;23;20478;-81
2023/10/04 02:50:50;;;;;;;5.07;2.20;;;;;;;;;;6202480;23;20031;-81
2023/10/04 02:53:26;;;;;;;2.95;2.30;;;;;;;;;;6237983;23;20012;-81
2023/10/04 02:55:55;;;;;;;4.68;2.28;;;;;;;;;;6203438;23;20031;-81
2023/10/04 02:58:27;;;;;;;4.63;2.60;;;;;;;;;;6239844;23;20012;-81
2023/10/04 03:00:55;;;;;;;6.63;4.03;;;;;;;;;;6231339;23;20027;-81
2023/10/04 03:03:24;;;;;;;3.72;3.08;;;;;;;;;;6203602;23;20016;-81
2023/10/04 03:05:56;;;;;;;4.05;3.00;;;;;;;;;;6202798;23;20030;-81
2023/10/04 03:08:24;;;;;;;6.32;2.58;;;;;;;;;;6202656;23;20016;-80
2023/10/04 03:10:55;;;;;;;4.82;3.90;;;;;;;;;;6227156;23;20026;-81
2023/10/04 03:13:25;;;;;;;8.45;3.15;;;;;;;;;;6237157;23;20008;-81
2023/10/04 03:15:56;;;;;;;7.68;4.18;;;;;;;;;;6202963;23;20024;-80
2023/10/04 03:18:25;;;;;;;4.95;3.17;;;;;;;;;;6202520;23;20016;-81
2023/10/04 03:21:09;;;;;;;7.72;4.22;;;;;;;;;;6203923;23;20478;-81
2023/10/04 03:23:49;;;;;;;3.47;2.85;;;;;;;;;;6205774;23;20020;-80
2023/10/04 03:26:19;;;;;;;4.93;2.97;;;;;;;;;;6204900;23;20021;-80
2023/10/04 03:28:51;;;;;;;11.85;3.53;;;;;;;;;;6204160;23;20026;-80
2023/10/04 03:31:23;;;;;;;4.45;2.33;;;;;;;;;;6203127;23;20020;-81
2023/10/04 03:33:55;;;;;;;2.20;2.00;;;;;;;;;;6202175;23;20016;-80
2023/10/04 03:36:29;;;;;;;3.88;2.22;;;;;;;;;;6201517;23;20027;-80
2023/10/04 03:39:03;;;;;;;11.30;3.40;;;;;;;;;;6236183;23;20531;-80
2023/10/04 03:41:32;;;;;;;4.97;3.55;;;;;;;;;;6201431;23;20027;-80
2023/10/04 03:44:09;;;;;;;4.65;2.65;;;;;;;;;;6228819;23;20012;-81
2023/10/04 03:46:38;;;;;;;4.07;2.55;;;;;;;;;;6201455;23;20027;-81
2023/10/04 03:49:07;;;;;;;3.55;2.28;;;;;;;;;;6202425;23;20020;-81
2023/10/04 03:51:34;;;;;;;4.07;2.20;;;;;;;;;;6202835;23;20024;-81
2023/10/04 03:54:07;;;;;;;3.55;2.55;;;;;;;;;;6202945;23;20023;-81
2023/10/04 03:56:37;;;;;;;3.95;2.50;;;;;;;;;;6203833;23;20352;-81
2023/10/04 03:59:07;;;;;;;4.22;2.70;;;;;;;;;;6202329;23;20053;-81
2023/10/04 04:01:37;;;;;;;3.28;2.13;;;;;;;;;;6201688;23;20032;-81
2023/10/04 04:04:08;;;;;;;4.80;2.28;;;;;;;;;;6226601;23;20020;-81
2023/10/04 04:06:35;;;;;;;7.63;2.75;;;;;;;;;;6227064;23;20024;-81
2023/10/04 04:09:08;;;;;;;5.18;2.97;;;;;;;;;;6201458;23;20034;-81
2023/10/04 04:11:36;;;;;;;3.33;1.98;;;;;;;;;;6201348;23;20016;-81
2023/10/04 04:14:08;;;;;;;6.85;2.65;;;;;;;;;;6202349;23;20026;-81
2023/10/04 04:16:38;;;;;;;3.55;2.55;;;;;;;;;;6201479;23;20026;-81
2023/10/04 04:19:11;;;;;;;9.98;2.75;;;;;;;;;;6202801;23;20030;-81
2023/10/04 04:21:39;;;;;;;3.85;2.83;;;;;;;;;;6201892;23;20020;-81
2023/10/04 04:24:09;;;;;;;3.85;2.30;;;;;;;;;;6227143;23;20016;-81
2023/10/04 04:26:36;;;;;;;8.98;3.47;;;;;;;;;;6227486;23;20012;-81
2023/10/04 04:29:09;;;;;;;10.45;3.15;;;;;;;;;;6202212;23;20333;-81
2023/10/04 04:31:38;;;;;;;31.17;4.82;;;;;;;;;;6200834;23;20027;-81
2023/10/04 04:34:13;;;;;;;8.57;2.72;;;;;;;;;;6202242;23;20012;-81
2023/10/04 04:36:42;;;;;;;5.85;2.40;;;;;;;;;;6227044;23;20020;-81
2023/10/04 04:39:18;;;;;;;4.57;2.58;;;;;;;;;;6226852;23;20059;-81
2023/10/04 04:41:52;;;;;;;3.33;2.17;;;;;;;;;;6236687;23;20019;-81
2023/10/04 04:44:24;;;;;;;4.50;2.58;;;;;;;;;;6227398;23;20059;-81
2023/10/04 04:46:56;;;;;;;17.08;4.00;;;;;;;;;;6202903;23;20020;-81
2023/10/04 04:49:25;;;;;;;5.72;2.22;;;;;;;;;;6202569;23;20336;-81
2023/10/04 04:51:54;;;;;;;2.97;1.77;;;;;;;;;;6226838;23;20016;-81
2023/10/04 04:54:26;;;;;;;5.65;2.30;;;;;;;;;;6237945;23;20023;-81
2023/10/04 04:56:54;;;;;;;7.25;2.35;;;;;;;;;;6201770;23;20024;-81
2023/10/04 04:59:24;;;;;;;5.05;3.13;;;;;;;;;;6202270;23;20017;-81
2023/10/04 05:01:55;;;;;;;3.03;2.00;;;;;;;;;;6201927;23;20022;-81
2023/10/04 05:04:23;;;;;;;2.53;1.65;;;;;;;;;;6202091;23;20356;-81
2023/10/04 05:06:54;;;;;;;4.05;2.28;;;;;;;;;;6226946;23;20020;-81
2023/10/04 05:09:21;;;;;;;5.25;2.05;;;;;;;;;;6202226;23;20023;-81
2023/10/04 05:11:51;;;;;;;5.68;2.13;;;;;;;;;;6201318;23;20030;-81
2023/10/04 05:14:18;;;;;;;5.50;2.03;;;;;;;;;;6253313;23;20336;-81
2023/10/04 05:16:49;;;;;;;2.70;1.73;;;;;;;;;;6227004;23;20039;-81
2023/10/04 05:19:16;;;;;;;5.43;2.13;;;;;;;;;;6202549;23;20020;-81
2023/10/04 05:21:46;;;;;;;2.85;2.08;;;;;;;;;;6226128;23;20023;-81
2023/10/04 05:24:19;;;;;;;2.60;1.95;;;;;;;;;;6227937;23;20026;-81
2023/10/04 05:26:51;;;;;;;7.63;2.97;;;;;;;;;;6258232;22;20016;-81
2023/10/04 05:29:19;;;;;;;3.70;2.20;;;;;;;;;;6254128;23;20012;-80
2023/10/04 05:31:47;;;;;;;14.73;2.97;;;;;;;;;;6238347;23;20016;-80
2023/10/04 05:34:14;;;;;;;11.45;3.45;;;;;;;;;;6229182;23;20022;-80
2023/10/04 05:36:42;;;;;;;6.15;2.75;;;;;;;;;;6204821;23;20019;-80
2023/10/04 05:39:12;;;;;;;6.05;2.83;;;;;;;;;;6228623;23;20040;-80
2023/10/04 05:41:43;;;;;;;2.85;2.53;;;;;;;;;;6204609;23;20023;-80
2023/10/04 05:44:13;;;;;;;2.83;2.47;;;;;;;;;;6228305;23;20464;-80
2023/10/04 05:46:44;;;;;;;23.85;3.13;;;;;;;;;;6203095;23;20020;-80
2023/10/04 05:49:12;;;;;;;4.97;2.47;;;;;;;;;;6202078;23;20016;-80
2023/10/04 05:51:41;;;;;;;5.47;1.95;;;;;;;;;;6227753;23;20030;-80
2023/10/04 05:54:10;;;;;;;3.28;2.00;;;;;;;;;;6203314;23;20016;-81
2023/10/04 07:18:56;;;;;;;9.00;4.25;;;;;;;;;;6254841;23;20020;-80
2023/10/04 07:21:23;;;;;;;14.32;3.58;;;;;;;;;;6202072;23;20024;-80
2023/10/04 07:23:52;;;;;;;8.95;4.22;;;;;;;;;;6226902;23;20031;-81
2023/10/04 07:26:20;;;;;;;16.02;4.10;;;;;;;;;;6189416;23;20040;-81
2023/10/04 07:28:47;;;;;;;16.65;4.45;;;;;;;;;;6196548;23;20017;-81
2023/10/04 07:31:18;;;;;;;5.80;3.63;;;;;;;;;;6196848;23;20023;-81
2023/10/04 07:33:45;;;;;;;10.98;3.72;;;;;;;;;;6196759;23;20025;-81
2023/10/04 07:36:14;;;;;;;4.95;3.92;;;;;;;;;;6171593;23;20020;-81
2023/10/04 07:38:45;;;;;;;10.63;4.72;;;;;;;;;;6208089;23;20013;-81
2023/10/04 07:41:15;;;;;;;6.90;4.13;;;;;;;;;;6196189;23;20024;-81
2023/10/04 07:43:42;;;;;;;6.55;4.13;;;;;;;;;;6171292;23;20023;-81
2023/10/04 07:46:12;;;;;;;7.80;4.13;;;;;;;;;;6171401;23;20035;-81
2023/10/04 07:48:42;;;;;;;19.33;4.28;;;;;;;;;;6205834;23;20019;-81
2023/10/04 07:51:15;;;;;;;5.45;4.53;;;;;;;;;;6170573;23;20030;-81
2023/10/04 07:53:46;;;;;;;7.72;4.38;;;;;;;;;;6205658;23;20017;-81
2023/10/04 07:56:17;;;;;;;8.55;4.10;;;;;;;;;;6170570;23;20017;-81
2023/10/04 07:58:45;;;;;;;12.68;3.50;;;;;;;;;;6170073;23;20020;-81
2023/10/04 08:01:14;;;;;;;5.63;3.75;;;;;;;;;;6194180;23;20025;-81
2023/10/04 08:03:41;;;;;;;7.82;4.30;;;;;;;;;;6221289;23;20016;-81
2023/10/04 10:24:03;;;;;;;5.00;2.20;;;;;;;;;;6276899;22;20466;-82
2023/10/04 10:48:41;;;;;;;4.72;1.85;;;;;;;;;;6244615;22;20020;-82
2023/10/04 10:51:11;;;;;;;3.55;1.75;;;;;;;;;;6194517;23;20016;-81
2023/10/04 10:54:01;;;;;;;3.03;1.50;;;;;;;;;;6219496;23;20587;-82
2023/10/04 10:56:45;;;;;;;4.53;1.83;;;;;;;;;;6219719;23;20020;-82
2023/10/04 11:26:18;;;;;;;7.23;2.53;;;;;;;;;;6242983;22;20670;-83
2023/10/04 11:28:57;;;;;;;;;;;;;;;;;;;;;
2023/10/04 11:31:58;;;;;;;7.68;1.38;;;;;;;;;;6165622;23;20024;-82
2023/10/04 11:34:44;;;;;;;5.05;1.48;;;;;;;;;;6198390;23;20013;-82
2023/10/04 11:41:50;;;;;;;;;;;;;;;;;;;;;
2023/10/04 11:45:02;;;;;;;3.90;1.35;;;;;;;;;;6224533;23;20021;-83
2023/10/04 11:47:41;;;;;;;4.00;1.20;;;;;;;;;;6149389;23;20021;-82
2023/10/04 11:50:47;;;;;;;5.82;2.25;;;;;;;;;;6187730;23;20020;-82
2023/10/04 11:53:57;;;;;;;5.88;2.10;;;;;;;;;;6072506;23;20030;-82
2023/10/04 11:56:58;;;;;;;1.90;1.02;;;;;;;;;;6214905;23;20013;-82
2023/10/04 11:59:33;;;;;;;8.20;1.27;;;;;;;;;;6224622;23;20020;-82
2023/10/04 12:05:48;;;;;;;3.75;2.20;;;;;;;;;;6199993;23;20032;-82
2023/10/04 12:08:32;;;;;;;4.90;1.77;;;;;;;;;;6189358;23;20464;-82
2023/10/04 12:11:36;;;;;;;;;;;;;;;;;;;;;
2023/10/04 12:14:50;;;;;;;;;;;;;;;;;;;;;
2023/10/04 12:18:04;;;;;;;5.13;1.38;;;;;;;;;;6079980;23;20018;-82
2023/10/04 12:56:11;;;;;;;;;;;;;;;;;;;;;
2023/10/04 12:58:47;;;;;;;1.88;1.33;;;;;;;;;;6167097;23;20020;-82
2023/10/04 13:01:29;;;;;;;;;;;;;;;;;;;;;
2023/10/04 13:04:29;;;;;;;;;;;;;;;;;;;;;
2023/10/04 13:07:15;;;;;;;3.92;1.65;;;;;;;;;;6226128;23;20024;-81
2023/10/04 13:10:19;;;;;;;;;;;;;;;;;;;;;
2023/10/04 13:13:29;;;;;;;;;;;;;;;;;;;;;
2023/10/04 13:16:40;;;;;;;3.42;1.70;;;;;;;;;;6200518;23;20430;-81
2023/10/04 13:19:23;;;;;;;2.47;1.38;;;;;;;;;;6191267;23;20020;-82
2023/10/04 13:22:03;;;;;;;4.65;1.45;;;;;;;;;;6260221;23;20352;-81
2023/10/04 13:25:07;;;;;;;2.80;1.38;;;;;;;;;;6236787;23;20024;-81
2023/10/04 13:27:52;;;;;;;;;;;;;;;;;;;;;
2023/10/04 13:53:26;;;;;;;3.33;1.77;;;;;;;;;;6250783;22;20028;-82
2023/10/04 13:56:15;;;;;;;3.92;1.67;;;;;;;;;;6070924;23;20026;-83
2023/10/04 13:58:48;;;;;;;14.52;1.90;;;;;;;;;;6110767;23;20017;-83
2023/10/04 14:02:10;;;;;;;;;;;;;;;;;;;;;
2023/10/04 14:05:05;;;;;;;;;;;;;;;;;;;;;
2023/10/04 14:08:19;;;;;;;4.57;1.60;;;;;;;;;;6103498;23;20032;-82
2023/10/04 14:11:20;;;;;;;4.43;1.95;;;;;;;;;;6125492;23;20026;-82
2023/10/04 14:13:51;;;;;;;4.22;2.15;;;;;;;;;;6169038;23;20043;-83
2023/10/04 14:16:19;;;;;;;6.88;1.92;;;;;;;;;;6166993;23;20027;-83
2023/10/04 14:18:48;;;;;;;3.25;1.63;;;;;;;;;;6191917;23;20381;-83
2023/10/04 14:21:15;;;;;;;4.35;1.98;;;;;;;;;;6166166;23;20017;-82
2023/10/04 14:23:45;;;;;;;6.03;2.83;;;;;;;;;;6191539;23;20025;-82
2023/10/04 15:25:14;;;;;;;5.60;2.25;;;;;;;;;;6254710;22;20027;-82
2023/10/04 15:29:01;;;;;;;;;;;;;;;;;;;;;
2023/10/04 15:31:40;;;;;;;3.10;2.08;;;;;;;;;;5986599;23;20026;-82
2023/10/04 15:34:12;;;;;;;2.28;1.35;;;;;;;;;;6176039;23;20023;-82
2023/10/04 15:36:56;;;;;;;;;;;;;;;;;;;;;
2023/10/04 15:39:57;;;;;;;9.85;3.67;;;;;;;;;;6186802;23;20024;-82
2023/10/04 15:42:38;;;;;;;;;;;;;;;;;;;;;
2023/10/04 15:45:37;;;;;;;;;;;;;;;;;;;;;
2023/10/04 15:48:39;;;;;;;;;;;;;;;;;;;;;
2023/10/04 15:51:55;;;;;;;3.40;1.80;;;;;;;;;;6036338;23;20023;-81
2023/10/04 15:54:39;;;;;;;2.75;1.73;;;;;;;;;;6041318;23;20126;-81
2023/10/04 15:57:06;;;;;;;3.25;2.33;;;;;;;;;;6177927;23;20023;-81
2023/10/04 15:59:35;;;;;;;3.28;1.95;;;;;;;;;;6189492;23;20032;-82
2023/10/04 16:02:02;;;;;;;4.03;2.20;;;;;;;;;;6214058;23;20472;-82
2023/10/04 16:04:34;;;;;;;4.28;2.35;;;;;;;;;;6189339;23;20496;-82
2023/10/04 16:07:01;;;;;;;6.25;2.63;;;;;;;;;;6165997;23;20024;-82
2023/10/04 16:09:29;;;;;;;5.00;2.83;;;;;;;;;;6189333;23;20028;-82
2023/10/04 16:11:57;;;;;;;5.82;2.42;;;;;;;;;;6164693;23;20032;-83
2023/10/04 16:14:25;;;;;;;2.83;1.70;;;;;;;;;;6190174;23;20016;-82
2023/10/04 16:16:54;;;;;;;4.53;2.55;;;;;;;;;;6189114;23;20016;-83
2023/10/04 16:19:22;;;;;;;2.95;2.38;;;;;;;;;;6189802;23;20054;-83
2023/10/04 16:21:50;;;;;;;6.03;2.45;;;;;;;;;;6189320;23;20021;-83
2023/10/04 16:24:18;;;;;;;5.35;2.55;;;;;;;;;;6215919;23;20017;-83
2023/10/04 16:48:57;;;;;;;;;;;;;;;;;;;;;
2023/10/04 16:51:46;;;;;;;3.28;2.17;;;;;;;;;;6053907;23;20030;-82
2023/10/04 16:54:48;;;;;;;;;;;;;;;;;;;;;
2023/10/04 16:58:20;;;;;;;;;;;;;;;;;;;;;
2023/10/04 17:05:25;;;;;;;;;;;;;;;;;;;;;
2023/10/04 17:08:43;;;;;;;5.57;3.33;;;;;;;;;;5999654;23;20036;-82
2023/10/04 17:11:10;;;;;;;4.22;2.88;;;;;;;;;;6056881;23;20015;-81
2023/10/04 17:13:38;;;;;;;6.07;2.72;;;;;;;;;;6041087;23;20017;-82
2023/10/04 17:16:07;;;;;;;5.68;3.50;;;;;;;;;;6131491;23;20032;-82
2023/10/04 17:18:34;;;;;;;3.53;2.60;;;;;;;;;;6131857;23;20683;-82
2023/10/04 17:21:06;;;;;;;3.90;2.78;;;;;;;;;;6131660;23;20157;-82
2023/10/04 17:23:34;;;;;;;11.45;2.85;;;;;;;;;;6158264;23;20020;-81
2023/10/04 17:26:08;;;;;;;5.63;3.22;;;;;;;;;;6131725;23;20014;-81
2023/10/04 17:28:38;;;;;;;4.35;3.28;;;;;;;;;;6133943;23;20018;-81
2023/10/04 17:31:06;;;;;;;7.22;3.17;;;;;;;;;;6134571;23;20022;-81
2023/10/04 17:33:35;;;;;;;6.43;3.35;;;;;;;;;;6159785;23;20020;-81
2023/10/04 17:36:04;;;;;;;4.28;2.90;;;;;;;;;;6134576;23;20017;-81
2023/10/04 17:38:31;;;;;;;5.05;2.63;;;;;;;;;;6160434;23;20013;-81
2023/10/04 17:41:01;;;;;;;4.30;3.17;;;;;;;;;;6158956;23;20033;-81
2023/10/04 17:43:30;;;;;;;5.10;2.65;;;;;;;;;;6134287;23;20040;-81
2023/10/04 17:45:58;;;;;;;3.65;2.83;;;;;;;;;;6134384;23;20023;-81
2023/10/04 17:48:28;;;;;;;3.80;2.30;;;;;;;;;;6158609;23;20021;-81
2023/10/04 17:50:55;;;;;;;6.82;3.00;;;;;;;;;;6158937;23;20021;-81
2023/10/04 17:53:25;;;;;;;5.97;3.55;;;;;;;;;;6158917;23;20630;-81
2023/10/04 17:55:52;;;;;;;5.97;3.78;;;;;;;;;;6134407;23;20018;-81
2023/10/04 17:58:19;;;;;;;3.97;3.58;;;;;;;;;;6160458;23;20014;-81
2023/10/04 18:00:48;;;;;;;5.70;3.00;;;;;;;;;;6134847;23;20017;-81
2023/10/04 18:03:15;;;;;;;4.10;2.22;;;;;;;;;;6160239;23;20415;-81
2023/10/04 18:05:44;;;;;;;5.43;2.65;;;;;;;;;;6134810;23;20022;-81
2023/10/04 18:08:14;;;;;;;5.13;3.60;;;;;;;;;;6134600;23;20629;-82
2023/10/04 18:10:43;;;;;;;7.10;3.38;;;;;;;;;;6111201;23;20037;-82
2023/10/04 18:13:11;;;;;;;3.58;2.63;;;;;;;;;;6168950;23;20022;-82
2023/10/04 18:15:41;;;;;;;6.68;3.15;;;;;;;;;;6134824;23;20343;-82
2023/10/04 18:18:12;;;;;;;5.55;3.28;;;;;;;;;;6109789;23;20017;-82
2023/10/04 18:20:39;;;;;;;4.30;2.95;;;;;;;;;;6110712;23;20033;-82
2023/10/04 18:23:07;;;;;;;4.75;2.78;;;;;;;;;;6134616;23;20032;-82
2023/10/04 18:25:37;;;;;;;4.50;2.70;;;;;;;;;;6110622;23;20017;-82
2023/10/04 18:28:04;;;;;;;3.33;2.58;;;;;;;;;;6135842;23;20017;-82
2023/10/04 18:30:34;;;;;;;4.75;2.63;;;;;;;;;;6135784;23;20018;-82
2023/10/04 18:33:04;;;;;;;3.92;2.80;;;;;;;;;;6135460;23;20017;-82
2023/10/04 18:35:35;;;;;;;4.40;3.03;;;;;;;;;;6135532;23;20032;-82
2023/10/04 18:38:05;;;;;;;5.70;2.75;;;;;;;;;;6170200;23;20025;-82
2023/10/04 18:40:32;;;;;;;6.22;3.17;;;;;;;;;;6162795;23;20028;-82
2023/10/04 18:42:59;;;;;;;4.47;2.63;;;;;;;;;;6135658;23;20028;-82
2023/10/04 18:45:27;;;;;;;5.50;2.70;;;;;;;;;;6135628;23;20347;-82
2023/10/04 18:47:54;;;;;;;4.70;3.25;;;;;;;;;;6135897;23;20017;-82
2023/10/04 18:50:23;;;;;;;4.68;2.75;;;;;;;;;;6135435;23;20024;-82
2023/10/04 18:52:52;;;;;;;7.60;3.75;;;;;;;;;;6135214;23;20520;-82
2023/10/04 18:55:22;;;;;;;3.88;3.00;;;;;;;;;;6135817;23;20021;-82
2023/10/04 18:57:49;;;;;;;5.25;2.88;;;;;;;;;;6135684;23;20021;-82
2023/10/04 19:00:19;;;;;;;9.05;3.08;;;;;;;;;;6135974;23;20035;-82
2023/10/04 19:02:47;;;;;;;6.78;2.83;;;;;;;;;;6135849;23;20074;-82
2023/10/04 19:05:18;;;;;;;4.43;3.17;;;;;;;;;;6135543;23;20035;-82
2023/10/04 19:07:47;;;;;;;3.75;2.65;;;;;;;;;;6135445;23;20261;-82
2023/10/04 19:10:19;;;;;;;7.00;3.53;;;;;;;;;;6135847;23;20017;-82
2023/10/04 19:12:46;;;;;;;3.88;3.13;;;;;;;;;;6132278;23;20487;-82
2023/10/04 19:15:14;;;;;;;4.15;3.15;;;;;;;;;;6135994;23;20473;-82
2023/10/04 19:17:44;;;;;;;5.13;2.83;;;;;;;;;;6135806;23;20017;-82
2023/10/04 19:20:12;;;;;;;6.75;3.15;;;;;;;;;;6135848;23;20023;-82
2023/10/04 19:22:40;;;;;;;4.07;3.00;;;;;;;;;;6135143;23;20024;-82
2023/10/04 19:25:11;;;;;;;3.92;2.97;;;;;;;;;;6162279;23;20013;-82
2023/10/04 19:27:42;;;;;;;4.93;2.83;;;;;;;;;;6162622;23;20017;-82
2023/10/04 19:30:10;;;;;;;4.05;2.90;;;;;;;;;;6162343;23;20016;-82
2023/10/04 19:32:38;;;;;;;6.85;2.78;;;;;;;;;;6110928;23;20024;-82
2023/10/04 19:35:13;;;;;;;9.27;3.58;;;;;;;;;;6161303;23;20021;-82
2023/10/04 19:37:41;;;;;;;7.20;4.13;;;;;;;;;;6136251;23;20018;-82
2023/10/04 19:40:08;;;;;;;6.50;4.07;;;;;;;;;;6135962;23;20043;-82
2023/10/04 19:42:36;;;;;;;9.85;3.97;;;;;;;;;;6160233;23;20021;-82
2023/10/04 19:45:07;;;;;;;6.05;3.35;;;;;;;;;;6161160;23;20332;-82
2023/10/04 19:47:34;;;;;;;8.02;3.25;;;;;;;;;;6132869;23;20501;-82
2023/10/04 19:50:05;;;;;;;5.30;3.35;;;;;;;;;;6157900;23;20327;-83
2023/10/04 19:52:33;;;;;;;6.20;3.08;;;;;;;;;;6132544;23;20464;-83
2023/10/04 19:55:04;;;;;;;4.95;3.67;;;;;;;;;;6133275;23;20017;-82
2023/10/04 19:57:35;;;;;;;4.85;3.25;;;;;;;;;;6157636;23;20014;-82
2023/10/04 20:00:06;;;;;;;5.35;4.05;;;;;;;;;;6132448;23;20024;-82
2023/10/04 20:02:35;;;;;;;4.53;2.88;;;;;;;;;;6133484;23;20021;-82
2023/10/04 20:05:03;;;;;;;5.82;3.88;;;;;;;;;;6135350;23;20024;-82
2023/10/04 20:07:30;;;;;;;5.15;3.08;;;;;;;;;;6138150;23;20044;-82
2023/10/04 20:09:57;;;;;;;5.28;3.95;;;;;;;;;;6140576;23;20028;-82
2023/10/04 20:12:25;;;;;;;9.55;5.15;;;;;;;;;;6164309;23;20017;-82
2023/10/04 20:14:52;;;;;;;5.35;3.35;;;;;;;;;;6162108;23;20018;-82
2023/10/04 20:17:20;;;;;;;6.40;3.47;;;;;;;;;;6111864;23;20021;-82
2023/10/04 20:19:49;;;;;;;9.02;3.28;;;;;;;;;;6137831;23;20010;-82
2023/10/04 20:22:16;;;;;;;6.20;3.65;;;;;;;;;;6136777;23;20021;-82
2023/10/04 20:24:43;;;;;;;7.45;3.63;;;;;;;;;;6136682;23;20488;-82
2023/10/04 20:27:10;;;;;;;4.47;3.00;;;;;;;;;;6163399;23;20017;-82
2023/10/04 20:29:39;;;;;;;5.25;3.00;;;;;;;;;;6161776;23;20017;-82
2023/10/04 20:32:07;;;;;;;10.68;4.53;;;;;;;;;;6136972;23;20025;-82
2023/10/04 20:34:38;;;;;;;6.60;3.80;;;;;;;;;;6174096;23;20021;-82
2023/10/04 20:37:07;;;;;;;7.50;3.40;;;;;;;;;;6138124;23;20028;-82
2023/10/04 20:39:34;;;;;;;6.97;3.85;;;;;;;;;;6140904;23;20021;-82
2023/10/04 20:42:04;;;;;;;7.80;3.53;;;;;;;;;;6139594;23;20024;-82
2023/10/04 20:44:34;;;;;;;5.88;3.42;;;;;;;;;;6174292;23;20020;-82
2023/10/04 20:47:04;;;;;;;7.82;3.10;;;;;;;;;;6139434;23;20028;-82
2023/10/04 20:49:33;;;;;;;5.95;3.35;;;;;;;;;;6138295;23;20024;-82
2023/10/04 20:52:02;;;;;;;7.38;3.65;;;;;;;;;;6136328;23;20025;-82
2023/10/04 20:54:31;;;;;;;4.65;3.33;;;;;;;;;;6161021;23;20021;-82
2023/10/04 20:57:01;;;;;;;6.68;3.42;;;;;;;;;;6136026;23;20028;-82
2023/10/04 20:59:32;;;;;;;6.20;3.42;;;;;;;;;;6111836;23;20024;-82
2023/10/04 21:02:00;;;;;;;5.47;3.30;;;;;;;;;;6112470;23;20510;-82
2023/10/04 21:04:29;;;;;;;6.15;3.53;;;;;;;;;;6146421;23;20017;-82
2023/10/04 21:06:57;;;;;;;5.25;4.38;;;;;;;;;;6161647;23;20017;-82
2023/10/04 21:09:25;;;;;;;3.22;2.63;;;;;;;;;;6137714;23;20037;-82
2023/10/04 21:11:55;;;;;;;7.70;4.13;;;;;;;;;;6165118;23;20021;-82
2023/10/04 21:14:25;;;;;;;7.32;3.78;;;;;;;;;;6115774;23;20022;-82
2023/10/04 21:16:56;;;;;;;5.18;3.13;;;;;;;;;;6171174;23;20032;-82
2023/10/04 21:19:23;;;;;;;3.58;2.47;;;;;;;;;;6140848;23;20014;-82
2023/10/04 21:21:50;;;;;;;7.85;3.88;;;;;;;;;;6114190;23;20021;-82
2023/10/04 21:24:19;;;;;;;4.30;3.08;;;;;;;;;;6138081;23;20036;-82
2023/10/04 21:26:47;;;;;;;4.40;2.92;;;;;;;;;;6137824;23;20017;-82
2023/10/04 21:29:17;;;;;;;6.90;4.00;;;;;;;;;;6137959;23;20022;-82
2023/10/04 21:31:49;;;;;;;5.88;3.20;;;;;;;;;;6137344;23;20469;-82
2023/10/04 21:34:20;;;;;;;5.10;3.22;;;;;;;;;;6113641;23;20028;-82
2023/10/04 21:36:50;;;;;;;8.20;3.20;;;;;;;;;;6136779;23;20029;-82
2023/10/04 21:39:24;;;;;;;4.63;3.30;;;;;;;;;;6138000;23;20035;-82
2023/10/04 21:41:55;;;;;;;5.30;3.13;;;;;;;;;;6175149;23;20020;-82
2023/10/04 21:44:30;;;;;;;5.63;3.20;;;;;;;;;;6165503;23;20017;-82
2023/10/04 21:46:59;;;;;;;4.55;3.33;;;;;;;;;;6139541;23;20022;-82
2023/10/04 21:49:28;;;;;;;7.40;3.63;;;;;;;;;;6163980;23;20024;-82
2023/10/04 21:52:09;;;;;;;6.83;3.57;;;;;;;;;;6138389;23;20020;-82
2023/10/04 21:54:37;;;;;;;7.78;5.45;;;;;;;;;;6138013;23;20024;-82
2023/10/04 21:57:07;;;;;;;7.05;3.55;;;;;;;;;;6163976;23;20021;-82
2023/10/04 21:59:37;;;;;;;6.28;4.07;;;;;;;;;;6138793;23;20014;-82
2023/10/04 22:02:04;;;;;;;5.82;3.15;;;;;;;;;;6138796;23;20032;-82
2023/10/04 22:04:32;;;;;;;6.07;2.85;;;;;;;;;;6164336;23;20014;-82
2023/10/04 22:07:01;;;;;;;10.38;4.05;;;;;;;;;;6162332;23;20023;-82
2023/10/04 22:09:29;;;;;;;6.35;4.35;;;;;;;;;;6164802;23;20499;-82
2023/10/04 22:11:59;;;;;;;5.38;3.33;;;;;;;;;;6138527;23;20395;-82
2023/10/04 22:14:29;;;;;;;4.25;2.58;;;;;;;;;;6138376;23;20021;-82
2023/10/04 22:16:56;;;;;;;4.75;2.78;;;;;;;;;;6164252;23;20018;-82
2023/10/04 22:19:26;;;;;;;3.97;3.05;;;;;;;;;;6138885;23;20031;-82
2023/10/04 22:21:55;;;;;;;7.68;3.78;;;;;;;;;;6138880;23;20036;-82
2023/10/04 22:24:23;;;;;;;6.65;3.03;;;;;;;;;;6174347;23;20068;-82
2023/10/04 22:26:52;;;;;;;5.32;2.88;;;;;;;;;;6162868;23;20345;-82
2023/10/04 22:29:19;;;;;;;6.28;2.80;;;;;;;;;;6167168;23;20022;-82
2023/10/04 22:31:48;;;;;;;6.22;3.42;;;;;;;;;;6141143;23;20015;-82
2023/10/04 22:34:17;;;;;;;6.47;3.33;;;;;;;;;;6165582;23;20018;-81
2023/10/04 22:36:44;;;;;;;5.05;2.58;;;;;;;;;;6142204;23;20014;-81
2023/10/04 22:39:14;;;;;;;5.70;4.30;;;;;;;;;;6138088;23;20030;-81